Biggar, Canada
Current Conditions -  °F | °C
As of 5:00 PM on Wednesday 22 Oct 2014 (Local Time) from CYQW Reporting Station
Clear Clear  
Wind Chill: 55°   Ceiling: Unl
Heat Index: 55°   Visibility: 9mi
Dew Point: 37°   Wind: 3mph
Humidity: 51%   Direction: 40°NE
Pressure: 29.71"   Gusts: NA
Location:  52.05°N, 107.98°W
Report Text: CYQW 222300Z AUTO 04003KT 9SM CLR 13/03 A2971 RMK SLP073 DENSITY ALT 2200FT
Loading
Personal Weather Stations






























Interactive Weather Map
Tropical Storm Tracking
New forecast layout! Learn more

10-Day Weather Forecast

Advertisements
Track Severe Weather on mobile